Sct Santiago — V7NF7 — position and weather

sailwx.info

Track history (hours):
 
Tides and Currents Weather Stations Pressure Air Temp Water Temp Dewpoint Dewpoint Depression Visibility Wind Speed Wind Dir Waves Ship Positions

Sct Santiago

Last reported at 2017-Mar-23 19:09 UTC. Time now 2017-Mar-23 20:16 UTC.
Position N 53°29' E 004°59'.

Length 294 m; draft 10.6 m.

Type: Cargo ship. MMSI: 538002953.

Date/timePositionNaut miles runAvg speedWind from/ knotsBaromVisibWave heightAir tempDewpointWater temp
2017-Mar-23 19:09N 53°29' E 004°59'6 9.2
2017-Mar-23 18:33N 53°27' E 004°51'20 9.6
2017-Mar-23 16:31N 53°11' E 004°31'1010.8
2017-Mar-23 15:33N 53°02' E 004°22'1110.6
2017-Mar-23 14:33N 52°52' E 004°15'1110.7
2017-Mar-23 13:33N 52°43' E 004°06'1111.0
2017-Mar-23 12:33N 52°34' E 003°57'1111.2
2017-Mar-23 11:33N 52°23' E 003°53'1111.5
2017-Mar-23 10:33N 52°11' E 003°54'10 9.9
2017-Mar-23 09:33N 52°01' E 003°57'6 6.5
2017-Mar-23 08:33N 51°57' E 004°04'1 0.8
2017-Mar-23 07:33N 51°57' E 004°03'0 0.0
2017-Mar-23 06:32N 51°57' E 004°03'0 0.0
2017-Mar-23 05:32N 51°57' E 004°03'0 0.0
2017-Mar-23 04:32N 51°57' E 004°03'0 0.0
2017-Mar-23 03:32N 51°57' E 004°03'0 0.0
2017-Mar-23 02:32N 51°57' E 004°03'0 0.0
2017-Mar-23 01:33N 51°57' E 004°03'0 0.0
2017-Mar-23 00:33N 51°57' E 004°03'0 0.0
2017-Mar-22 23:33N 51°57' E 004°03'0 0.0
2017-Mar-22 22:33N 51°57' E 004°03'0 0.0
2017-Mar-22 21:33N 51°57' E 004°03'3 2.9
2017-Mar-22 20:33N 51°60' E 004°01'1111.1
2017-Mar-22 19:34N 51°59' E 003°43'6315.6
2017-Mar-22 15:33N 51°29' E 002°15'1716.7
2017-Mar-22 14:34N 51°14' E 002°03'1717.2
2017-Mar-22 13:33N 51°05' E 001°40'1716.7
2017-Mar-22 12:34N 50°52' E 001°24'6516.1
2017-Mar-22 08:33N 50°17' W 000°02'1717.4
2017-Mar-22 07:34N 50°12' W 000°27'1717.4
2017-Mar-22 06:33N 50°05' W 000°52'1818.3
2017-Mar-22 05:34N 49°55' W 001°17'1818.0
2017-Mar-22 04:33N 49°45' W 001°39'9 9.3
2017-Mar-22 03:33N 49°47' W 001°53'1110.8
2017-Mar-22 02:33N 49°53' W 002°08'2914.4
2017-Mar-22 00:33N 49°50' W 002°52'1616.4
2017-Mar-21 23:33N 49°42' W 003°14'8517.0
2017-Mar-21 18:33N 48°60' W 005°08'1717.3
2017-Mar-21 17:33N 48°50' W 005°30'60016.7
2017-Mar-20 05:33N 39°22' W 009°57'1717.3
2017-Mar-20 04:33N 39°05' W 009°57'1717.4
2017-Mar-20 03:34N 38°47' W 009°57'1717.1
2017-Mar-20 02:34N 38°30' W 009°53'1716.9
2017-Mar-20 01:33N 38°14' W 009°49'1717.2
2017-Mar-20 00:33N 37°57' W 009°44'1717.2
2017-Mar-19 23:34N 37°40' W 009°39'1717.0
2017-Mar-19 22:34N 37°24' W 009°34'1716.9
2017-Mar-19 21:33N 37°07' W 009°29'1716.8
2017-Mar-19 20:33N 36°51' W 009°24'1716.6
2017-Mar-19 19:33N 36°40' W 009°08'1716.9
2017-Mar-19 18:33N 36°35' W 008°48'1716.8
2017-Mar-19 17:32N 36°31' W 008°27'1716.9
2017-Mar-19 16:33N 36°26' W 008°08'1717.0
2017-Mar-19 15:34N 36°21' W 007°47'1717.1
2017-Mar-19 14:33N 36°16' W 007°27'8617.0
2017-Mar-19 09:30N 35°57' W 005°43'1516.3
2017-Mar-19 08:34N 36°00' W 005°25'1716.7
2017-Mar-19 07:34N 36°04' W 005°05'21017.1
2017-Mar-18 19:17N 36°41' W 000°47'1216.9
2017-Mar-18 18:33N 36°44' W 000°32'1717.2
2017-Mar-18 17:33N 36°47' W 000°11'1717.1
2017-Mar-18 16:33N 36°51' E 000°10'1717.1
2017-Mar-18 15:33N 36°55' E 000°31'1717.3
2017-Mar-18 14:34N 36°58' E 000°52'1717.4
2017-Mar-18 13:33N 37°02' E 001°13'1717.1
2017-Mar-18 12:33N 37°05' E 001°34'1717.2
2017-Mar-18 11:33N 37°08' E 001°55'1716.9
2017-Mar-18 10:34N 37°10' E 002°16'1717.0
2017-Mar-18 09:34N 37°12' E 002°37'7016.9
2017-Mar-18 05:25N 37°21' E 004°04'1416.1
2017-Mar-18 04:33N 37°23' E 004°22'1616.3
2017-Mar-18 03:33N 37°25' E 004°42'1716.8
2017-Mar-18 02:33N 37°27' E 005°03'1717.0
2017-Mar-18 01:33N 37°29' E 005°24'1916.9
2017-Mar-18 00:27N 37°32' E 005°48'3417.0
2017-Mar-17 22:26N 37°37' E 006°31'3216.9
2017-Mar-17 20:32N 37°41' E 007°11'1717.0
2017-Mar-17 19:33N 37°42' E 007°32'14016.7
2017-Mar-17 11:12N 37°37' E 010°28'16316.8
2017-Mar-17 01:32N 36°32' E 013°35'1717.2
2017-Mar-17 00:34N 36°26' E 013°55'1717.0
2017-Mar-16 23:33N 36°20' E 014°15'1717.0
2017-Mar-16 22:33N 36°15' E 014°35'  
Track history (hours):
 
Tides and Currents Weather Stations Pressure Air Temp Water Temp Dewpoint Dewpoint Depression Visibility Wind Speed Wind Dir Waves Ship Positions

Sct Santiago

Last reported at 2017-Mar-23 19:09 UTC. Time now 2017-Mar-23 20:16 UTC.
Position N 53°29' E 004°59'.

Length 294 m; draft 10.6 m.

Type: Cargo ship. MMSI: 538002953.

Date/timePositionNaut miles runAvg speedWind from/ knotsBaromVisibWave heightAir tempDewpointWater temp
2017-Mar-23 19:09N 53°29' E 004°59'6 9.2
2017-Mar-23 18:33N 53°27' E 004°51'20 9.6
2017-Mar-23 16:31N 53°11' E 004°31'1010.8
2017-Mar-23 15:33N 53°02' E 004°22'1110.6
2017-Mar-23 14:33N 52°52' E 004°15'1110.7
2017-Mar-23 13:33N 52°43' E 004°06'1111.0
2017-Mar-23 12:33N 52°34' E 003°57'1111.2
2017-Mar-23 11:33N 52°23' E 003°53'1111.5
2017-Mar-23 10:33N 52°11' E 003°54'10 9.9
2017-Mar-23 09:33N 52°01' E 003°57'6 6.5
2017-Mar-23 08:33N 51°57' E 004°04'1 0.8
2017-Mar-23 07:33N 51°57' E 004°03'0 0.0
2017-Mar-23 06:32N 51°57' E 004°03'0 0.0
2017-Mar-23 05:32N 51°57' E 004°03'0 0.0
2017-Mar-23 04:32N 51°57' E 004°03'0 0.0
2017-Mar-23 03:32N 51°57' E 004°03'0 0.0
2017-Mar-23 02:32N 51°57' E 004°03'0 0.0
2017-Mar-23 01:33N 51°57' E 004°03'0 0.0
2017-Mar-23 00:33N 51°57' E 004°03'0 0.0
2017-Mar-22 23:33N 51°57' E 004°03'0 0.0
2017-Mar-22 22:33N 51°57' E 004°03'0 0.0
2017-Mar-22 21:33N 51°57' E 004°03'3 2.9
2017-Mar-22 20:33N 51°60' E 004°01'1111.1
2017-Mar-22 19:34N 51°59' E 003°43'6315.6
2017-Mar-22 15:33N 51°29' E 002°15'1716.7
2017-Mar-22 14:34N 51°14' E 002°03'1717.2
2017-Mar-22 13:33N 51°05' E 001°40'1716.7
2017-Mar-22 12:34N 50°52' E 001°24'6516.1
2017-Mar-22 08:33N 50°17' W 000°02'1717.4
2017-Mar-22 07:34N 50°12' W 000°27'1717.4
2017-Mar-22 06:33N 50°05' W 000°52'1818.3
2017-Mar-22 05:34N 49°55' W 001°17'1818.0
2017-Mar-22 04:33N 49°45' W 001°39'9 9.3
2017-Mar-22 03:33N 49°47' W 001°53'1110.8
2017-Mar-22 02:33N 49°53' W 002°08'2914.4
2017-Mar-22 00:33N 49°50' W 002°52'1616.4
2017-Mar-21 23:33N 49°42' W 003°14'8517.0
2017-Mar-21 18:33N 48°60' W 005°08'1717.3
2017-Mar-21 17:33N 48°50' W 005°30'60016.7
2017-Mar-20 05:33N 39°22' W 009°57'1717.3
2017-Mar-20 04:33N 39°05' W 009°57'1717.4
2017-Mar-20 03:34N 38°47' W 009°57'1717.1
2017-Mar-20 02:34N 38°30' W 009°53'1716.9
2017-Mar-20 01:33N 38°14' W 009°49'1717.2
2017-Mar-20 00:33N 37°57' W 009°44'1717.2
2017-Mar-19 23:34N 37°40' W 009°39'1717.0
2017-Mar-19 22:34N 37°24' W 009°34'1716.9
2017-Mar-19 21:33N 37°07' W 009°29'1716.8
2017-Mar-19 20:33N 36°51' W 009°24'1716.6
2017-Mar-19 19:33N 36°40' W 009°08'1716.9
2017-Mar-19 18:33N 36°35' W 008°48'1716.8
2017-Mar-19 17:32N 36°31' W 008°27'1716.9
2017-Mar-19 16:33N 36°26' W 008°08'1717.0
2017-Mar-19 15:34N 36°21' W 007°47'1717.1
2017-Mar-19 14:33N 36°16' W 007°27'8617.0
2017-Mar-19 09:30N 35°57' W 005°43'1516.3
2017-Mar-19 08:34N 36°00' W 005°25'1716.7
2017-Mar-19 07:34N 36°04' W 005°05'21017.1
2017-Mar-18 19:17N 36°41' W 000°47'1216.9
2017-Mar-18 18:33N 36°44' W 000°32'1717.2
2017-Mar-18 17:33N 36°47' W 000°11'1717.1
2017-Mar-18 16:33N 36°51' E 000°10'1717.1
2017-Mar-18 15:33N 36°55' E 000°31'1717.3
2017-Mar-18 14:34N 36°58' E 000°52'1717.4
2017-Mar-18 13:33N 37°02' E 001°13'1717.1
2017-Mar-18 12:33N 37°05' E 001°34'1717.2
2017-Mar-18 11:33N 37°08' E 001°55'1716.9
2017-Mar-18 10:34N 37°10' E 002°16'1717.0
2017-Mar-18 09:34N 37°12' E 002°37'7016.9
2017-Mar-18 05:25N 37°21' E 004°04'1416.1
2017-Mar-18 04:33N 37°23' E 004°22'1616.3
2017-Mar-18 03:33N 37°25' E 004°42'1716.8
2017-Mar-18 02:33N 37°27' E 005°03'1717.0
2017-Mar-18 01:33N 37°29' E 005°24'1916.9
2017-Mar-18 00:27N 37°32' E 005°48'3417.0
2017-Mar-17 22:26N 37°37' E 006°31'3216.9
2017-Mar-17 20:32N 37°41' E 007°11'1717.0
2017-Mar-17 19:33N 37°42' E 007°32'14016.7
2017-Mar-17 11:12N 37°37' E 010°28'16316.8
2017-Mar-17 01:32N 36°32' E 013°35'1717.2
2017-Mar-17 00:34N 36°26' E 013°55'1717.0
2017-Mar-16 23:33N 36°20' E 014°15'1717.0
2017-Mar-16 22:33N 36°15' E 014°35'  

Dump ship's entire track history